Time;durP1;ratioP1;P1;durP2;ratioP2;P2;SDS_P1;SDS_P2;PMS_P1;PMS_P2;Temp;Humidity;BMP_temperature;BMP_pressure;BME280_temperature;BME280_humidity;BME280_pressure;Samples;Min_cycle;Max_cycle;Signal;HPM_P1;HPM_P2
2024/02/27 00:01:51;;;;;;;;;;;11.50;51.40;;;;;;5082921;28;19967;-51
2024/02/27 00:04:19;;;;;;;;;;;11.50;51.50;;;;;;5082297;28;19932;-53
2024/02/27 00:06:49;;;;;;;;;;;11.50;51.40;;;;;;5074859;28;19928;-52
2024/02/27 00:09:19;;;;;;;;;;;11.50;51.50;;;;;;5058333;28;19928;-56
2024/02/27 00:11:48;;;;;;;;;;;11.50;51.50;;;;;;5082144;28;20518;-56
2024/02/27 00:14:16;;;;;;;;;;;11.50;51.40;;;;;;5086113;28;19927;-54
2024/02/27 00:16:44;;;;;;;;;;;11.40;51.30;;;;;;5077046;28;19954;-53
2024/02/27 00:19:12;;;;;;;;;;;11.40;51.30;;;;;;5079985;28;19928;-53
2024/02/27 00:21:40;;;;;;;;;;;11.40;51.30;;;;;;5075463;28;19935;-54
2024/02/27 00:24:08;;;;;;;;;;;11.30;51.30;;;;;;5081159;28;19927;-52
2024/02/27 00:26:38;;;;;;;;;;;11.30;51.30;;;;;;5084896;27;19928;-54
2024/02/27 00:29:06;;;;;;;;;;;11.30;51.30;;;;;;5062017;28;19941;-54
2024/02/27 00:31:34;;;;;;;;;;;11.30;51.30;;;;;;5084082;28;19977;-50
2024/02/27 00:34:02;;;;;;;;;;;11.20;51.30;;;;;;5082606;28;19942;-52
2024/02/27 00:36:30;;;;;;;;;;;11.20;51.40;;;;;;5075535;28;22214;-53
2024/02/27 00:38:58;;;;;;;;;;;11.20;51.50;;;;;;5079409;28;19924;-53
2024/02/27 00:41:26;;;;;;;;;;;11.20;51.50;;;;;;5075517;28;19934;-55
2024/02/27 00:43:55;;;;;;;;;;;11.20;51.50;;;;;;5084939;28;20062;-53
2024/02/27 00:46:24;;;;;;;;;;;11.20;51.50;;;;;;5079594;28;19934;-53
2024/02/27 00:48:52;;;;;;;;;;;11.20;51.60;;;;;;5075947;28;19928;-53
2024/02/27 00:51:20;;;;;;;;;;;11.10;51.50;;;;;;5086307;28;20665;-53
2024/02/27 00:53:48;;;;;;;;;;;11.10;51.50;;;;;;5074952;28;20419;-50
2024/02/27 00:56:16;;;;;;;;;;;11.00;51.50;;;;;;5082059;28;20493;-54
2024/02/27 00:58:44;;;;;;;;;;;11.00;51.70;;;;;;5081333;28;19928;-54
2024/02/27 01:01:14;;;;;;;;;;;10.90;51.70;;;;;;5077441;28;19939;-57
2024/02/27 01:03:42;;;;;;;;;;;10.90;51.70;;;;;;5072208;28;19934;-55
2024/02/27 01:06:10;;;;;;;;;;;10.90;51.70;;;;;;5083149;28;20046;-55
2024/02/27 01:08:39;;;;;;;;;;;10.90;51.70;;;;;;5079263;28;19969;-55
2024/02/27 01:11:07;;;;;;;;;;;10.90;52.30;;;;;;5077924;28;20569;-57
2024/02/27 01:13:35;;;;;;;;;;;10.90;51.60;;;;;;5083447;28;19927;-55
2024/02/27 01:16:04;;;;;;;;;;;10.90;51.60;;;;;;5064546;28;19924;-55
2024/02/27 01:18:33;;;;;;;;;;;11.00;51.60;;;;;;5076253;28;19928;-53
2024/02/27 01:21:04;;;;;;;;;;;11.00;51.60;;;;;;5080814;28;19951;-53
2024/02/27 01:23:32;;;;;;;;;;;11.00;51.60;;;;;;5079856;28;19935;-56
2024/02/27 01:26:00;;;;;;;;;;;11.10;51.60;;;;;;5077841;28;19928;-50
2024/02/27 01:28:27;;;;;;;;;;;11.10;51.60;;;;;;5078754;28;20382;-57
2024/02/27 01:30:55;;;;;;;;;;;11.10;51.60;;;;;;5079629;28;19935;-53
2024/02/27 01:33:24;;;;;;;;;;;11.20;51.60;;;;;;5079032;28;20477;-55
2024/02/27 01:35:53;;;;;;;;;;;11.30;51.70;;;;;;5078745;28;20351;-58
2024/02/27 01:38:22;;;;;;;;;;;11.30;51.70;;;;;;5079722;28;19928;-55
2024/02/27 01:40:50;;;;;;;;;;;11.30;51.70;;;;;;5076167;28;19932;-53
2024/02/27 01:43:22;;;;;;;;;;;11.40;51.70;;;;;;5075636;28;20409;-54
2024/02/27 01:45:53;;;;;;;;;;;11.40;52.00;;;;;;5090691;28;21502;-55
2024/02/27 01:48:22;;;;;;;;;;;11.50;51.60;;;;;;5083095;28;19934;-55
2024/02/27 01:50:50;;;;;;;;;;;11.50;51.70;;;;;;5076943;28;19950;-55
2024/02/27 01:53:19;;;;;;;;;;;11.50;52.10;;;;;;5075967;28;19927;-54
2024/02/27 01:55:48;;;;;;;;;;;11.50;51.50;;;;;;5079181;28;19927;-53
2024/02/27 01:58:17;;;;;;;;;;;11.50;51.50;;;;;;5079137;28;20347;-56
2024/02/27 02:00:46;;;;;;;;;;;11.50;51.60;;;;;;5083962;28;19989;-52
2024/02/27 02:03:16;;;;;;;;;;;11.50;52.20;;;;;;5072865;27;19928;-54
2024/02/27 02:05:44;;;;;;;;;;;11.60;51.70;;;;;;5084294;28;19963;-55
2024/02/27 02:08:12;;;;;;;;;;;11.60;51.60;;;;;;5082243;28;20475;-56
2024/02/27 02:10:42;;;;;;;;;;;11.60;51.50;;;;;;5078511;28;19928;-53
2024/02/27 02:13:10;;;;;;;;;;;11.60;51.80;;;;;;5076768;28;19932;-55
2024/02/27 02:15:39;;;;;;;;;;;11.60;51.60;;;;;;5075237;28;19935;-55
2024/02/27 02:18:07;;;;;;;;;;;11.60;51.60;;;;;;5077244;28;20335;-56
2024/02/27 02:20:39;;;;;;;;;;;11.60;51.60;;;;;;5087214;28;19924;-52
2024/02/27 02:23:07;;;;;;;;;;;11.60;51.60;;;;;;5083107;28;19928;-54
2024/02/27 02:25:37;;;;;;;;;;;11.60;51.60;;;;;;5073851;28;19958;-57
2024/02/27 02:28:05;;;;;;;;;;;11.60;51.60;;;;;;5079867;28;19923;-51
2024/02/27 02:30:33;;;;;;;;;;;11.60;51.60;;;;;;5081031;28;19928;-55
2024/02/27 02:33:01;;;;;;;;;;;11.60;51.60;;;;;;5082645;28;19959;-51
2024/02/27 02:35:29;;;;;;;;;;;11.60;51.50;;;;;;5072058;27;20014;-52
2024/02/27 02:37:59;;;;;;;;;;;11.50;51.50;;;;;;5079262;27;19928;-56
2024/02/27 02:40:27;;;;;;;;;;;11.50;51.80;;;;;;5083482;28;20353;-56
2024/02/27 02:42:55;;;;;;;;;;;11.50;51.50;;;;;;5081881;28;19932;-53
2024/02/27 02:45:23;;;;;;;;;;;11.40;51.50;;;;;;5077137;28;19972;-50
2024/02/27 02:47:51;;;;;;;;;;;11.40;51.50;;;;;;5082680;28;19928;-56
2024/02/27 02:50:20;;;;;;;;;;;11.40;51.50;;;;;;5069867;28;19935;-50
2024/02/27 02:52:48;;;;;;;;;;;11.30;51.50;;;;;;5079235;28;20413;-51
2024/02/27 02:55:17;;;;;;;;;;;11.30;51.50;;;;;;5072218;28;20046;-55
2024/02/27 02:57:46;;;;;;;;;;;11.30;51.50;;;;;;5060382;28;19935;-53
2024/02/27 03:00:14;;;;;;;;;;;11.20;51.60;;;;;;5080678;28;19977;-54
2024/02/27 03:02:42;;;;;;;;;;;11.20;51.60;;;;;;5079560;28;19935;-57
2024/02/27 03:05:12;;;;;;;;;;;11.20;51.60;;;;;;5087697;28;19939;-55
2024/02/27 03:07:41;;;;;;;;;;;11.20;51.60;;;;;;5075640;28;19932;-55
2024/02/27 03:10:09;;;;;;;;;;;11.20;51.60;;;;;;5080803;28;19982;-54
2024/02/27 03:12:39;;;;;;;;;;;11.20;51.60;;;;;;5076287;28;20287;-55
2024/02/27 03:15:08;;;;;;;;;;;11.20;51.60;;;;;;5074142;28;20374;-54
2024/02/27 03:17:36;;;;;;;;;;;11.20;51.70;;;;;;5072084;28;19932;-54
2024/02/27 03:20:09;;;;;;;;;;;11.20;51.70;;;;;;5080609;28;20039;-55
2024/02/27 03:22:37;;;;;;;;;;;11.20;51.70;;;;;;5076615;28;19928;-57
2024/02/27 03:25:05;;;;;;;;;;;11.20;51.80;;;;;;5080973;28;20280;-54
2024/02/27 03:27:34;;;;;;;;;;;11.20;51.80;;;;;;5050339;28;19928;-54
2024/02/27 03:30:04;;;;;;;;;;;11.20;51.80;;;;;;5078936;28;20391;-56
2024/02/27 03:32:32;;;;;;;;;;;11.20;51.90;;;;;;5075785;28;20022;-55
2024/02/27 03:35:01;;;;;;;;;;;11.20;51.90;;;;;;5086200;28;20385;-54
2024/02/27 03:37:29;;;;;;;;;;;11.20;51.90;;;;;;5072463;28;19934;-53
2024/02/27 03:39:57;;;;;;;;;;;11.20;51.80;;;;;;5083162;28;19927;-54
2024/02/27 03:42:25;;;;;;;;;;;11.10;51.80;;;;;;5079447;28;19924;-55
2024/02/27 03:44:53;;;;;;;;;;;11.10;51.90;;;;;;5078447;28;19954;-52
2024/02/27 03:47:22;;;;;;;;;;;11.10;51.90;;;;;;5068450;28;19939;-56
2024/02/27 03:49:51;;;;;;;;;;;11.10;51.90;;;;;;5077940;28;19992;-55
2024/02/27 03:52:19;;;;;;;;;;;11.20;51.90;;;;;;5084129;28;19932;-54
2024/02/27 03:54:47;;;;;;;;;;;11.10;51.80;;;;;;5079000;27;19951;-52
2024/02/27 03:57:15;;;;;;;;;;;11.20;52.40;;;;;;5074021;28;20520;-53
2024/02/27 03:59:43;;;;;;;;;;;11.20;51.80;;;;;;5080040;28;19959;-54
2024/02/27 04:02:11;;;;;;;;;;;11.20;51.80;;;;;;5083543;28;19935;-56
2024/02/27 04:04:41;;;;;;;;;;;11.20;52.40;;;;;;5083008;28;20874;-55
2024/02/27 04:07:09;;;;;;;;;;;11.20;51.90;;;;;;5080887;28;19928;-51
2024/02/27 04:09:37;;;;;;;;;;;11.20;51.80;;;;;;5077667;28;19935;-53
2024/02/27 04:12:06;;;;;;;;;;;11.20;51.80;;;;;;5078805;28;19939;-53
2024/02/27 04:14:34;;;;;;;;;;;11.10;51.80;;;;;;5077169;28;19928;-52
2024/02/27 04:17:02;;;;;;;;;;;11.20;51.90;;;;;;5077863;28;19931;-54
2024/02/27 04:19:30;;;;;;;;;;;11.20;51.80;;;;;;5067550;28;20040;-52
2024/02/27 04:22:00;;;;;;;;;;;11.10;51.80;;;;;;5081155;28;19935;-53
2024/02/27 04:24:28;;;;;;;;;;;11.10;51.80;;;;;;5080768;28;20389;-53
2024/02/27 04:26:56;;;;;;;;;;;11.10;51.80;;;;;;5076062;28;19928;-54
2024/02/27 04:29:24;;;;;;;;;;;11.10;51.80;;;;;;5059346;28;19993;-56
2024/02/27 04:31:52;;;;;;;;;;;11.10;51.80;;;;;;5076668;28;20025;-55
2024/02/27 04:34:20;;;;;;;;;;;11.00;51.90;;;;;;5084521;28;20476;-53
2024/02/27 04:36:49;;;;;;;;;;;11.10;51.90;;;;;;5082082;28;20299;-55
2024/02/27 04:39:18;;;;;;;;;;;11.10;51.90;;;;;;5079232;28;19977;-58
2024/02/27 04:41:47;;;;;;;;;;;11.00;51.90;;;;;;5078228;28;20019;-58
2024/02/27 04:44:15;;;;;;;;;;;11.00;51.90;;;;;;5083560;28;19967;-56
2024/02/27 04:46:43;;;;;;;;;;;11.00;51.90;;;;;;5079751;28;20999;-55
2024/02/27 04:49:11;;;;;;;;;;;11.00;51.90;;;;;;5077162;28;19954;-56
2024/02/27 04:51:39;;;;;;;;;;;11.00;52.00;;;;;;5079990;28;19939;-56
2024/02/27 04:54:07;;;;;;;;;;;11.00;52.00;;;;;;5084114;28;19928;-56
2024/02/27 04:56:40;;;;;;;;;;;11.00;52.20;;;;;;5083715;28;19934;-55
2024/02/27 04:59:08;;;;;;;;;;;11.00;52.10;;;;;;5079224;28;20144;-57
2024/02/27 05:01:36;;;;;;;;;;;11.00;52.00;;;;;;5070831;28;19939;-54
2024/02/27 05:04:04;;;;;;;;;;;11.00;51.90;;;;;;5083741;28;19935;-54
2024/02/27 05:06:32;;;;;;;;;;;11.00;52.00;;;;;;5078040;28;19924;-51
2024/02/27 05:09:01;;;;;;;;;;;11.00;52.00;;;;;;5086523;28;20002;-56
2024/02/27 05:11:29;;;;;;;;;;;11.00;52.00;;;;;;5073221;28;19932;-53
2024/02/27 05:13:58;;;;;;;;;;;11.10;52.10;;;;;;5080926;28;19934;-54
2024/02/27 05:16:26;;;;;;;;;;;11.10;52.40;;;;;;5081019;28;20279;-52
2024/02/27 05:18:54;;;;;;;;;;;11.00;52.00;;;;;;5081443;28;20396;-57
2024/02/27 05:21:22;;;;;;;;;;;11.00;52.00;;;;;;5082284;28;19928;-56
2024/02/27 05:23:50;;;;;;;;;;;11.00;52.10;;;;;;5083034;28;19963;-55
2024/02/27 05:26:19;;;;;;;;;;;11.00;52.30;;;;;;5081553;28;19954;-54
2024/02/27 05:28:47;;;;;;;;;;;11.10;52.20;;;;;;5079990;28;20005;-57
2024/02/27 05:31:24;;;;;;;;;;;11.10;52.20;;;;;;5078723;28;20024;-56
2024/02/27 05:33:53;;;;;;;;;;;11.10;52.20;;;;;;5081043;28;20452;-57
2024/02/27 05:36:21;;;;;;;;;;;11.10;52.30;;;;;;5083642;28;19928;-55
2024/02/27 05:38:50;;;;;;;;;;;11.10;52.30;;;;;;5080824;28;19927;-54
2024/02/27 05:41:18;;;;;;;;;;;11.10;52.30;;;;;;5080356;28;19951;-54
2024/02/27 05:43:47;;;;;;;;;;;11.20;52.90;;;;;;5075341;28;21071;-50
2024/02/27 05:46:15;;;;;;;;;;;11.20;52.30;;;;;;5079846;28;19943;-54
2024/02/27 05:48:45;;;;;;;;;;;11.10;52.30;;;;;;5080468;27;20028;-53
2024/02/27 05:51:13;;;;;;;;;;;11.20;52.30;;;;;;5079822;28;20001;-55
2024/02/27 05:53:42;;;;;;;;;;;11.20;52.30;;;;;;5075148;28;19939;-55
2024/02/27 05:56:11;;;;;;;;;;;11.20;52.40;;;;;;5084209;28;19939;-53
2024/02/27 05:58:39;;;;;;;;;;;11.20;52.30;;;;;;5086978;27;19928;-57
2024/02/27 06:01:07;;;;;;;;;;;11.20;52.30;;;;;;5084118;28;20701;-54
2024/02/27 06:03:35;;;;;;;;;;;11.20;52.20;;;;;;5080533;28;19928;-54
2024/02/27 06:06:06;;;;;;;;;;;11.20;52.20;;;;;;5049100;28;20520;-55
2024/02/27 06:08:34;;;;;;;;;;;11.20;52.10;;;;;;5076521;27;19932;-59
2024/02/27 06:11:02;;;;;;;;;;;11.20;52.10;;;;;;5065249;28;19928;-60
2024/02/27 06:13:31;;;;;;;;;;;11.20;52.20;;;;;;5077692;28;19924;-59
2024/02/27 06:15:59;;;;;;;;;;;11.20;52.30;;;;;;5073152;28;21700;-53
2024/02/27 06:18:27;;;;;;;;;;;11.20;52.60;;;;;;5075479;28;20339;-55
2024/02/27 06:23:42;;;;;;;;;;;11.20;52.40;;;;;;5077844;28;20353;-54
2024/02/27 06:26:13;;;;;;;;;;;11.20;52.60;;;;;;5071297;28;20604;-55
2024/02/27 06:28:42;;;;;;;;;;;11.20;52.30;;;;;;5081695;28;19928;-55
2024/02/27 06:31:11;;;;;;;;;;;11.20;52.30;;;;;;5076568;27;19981;-53
2024/02/27 06:33:39;;;;;;;;;;;11.20;52.70;;;;;;5074568;27;19932;-56
2024/02/27 06:36:08;;;;;;;;;;;11.20;52.30;;;;;;5072453;27;20008;-55
2024/02/27 06:38:36;;;;;;;;;;;11.20;52.30;;;;;;5078701;28;19939;-53
2024/02/27 06:41:05;;;;;;;;;;;11.20;52.30;;;;;;5079491;28;20441;-58
2024/02/27 06:43:34;;;;;;;;;;;11.20;52.30;;;;;;5081502;28;20016;-58
2024/02/27 06:46:04;;;;;;;;;;;11.20;52.30;;;;;;5083535;27;19934;-56
2024/02/27 06:48:32;;;;;;;;;;;11.20;52.40;;;;;;5074848;28;20012;-53
2024/02/27 06:51:06;;;;;;;;;;;11.20;52.30;;;;;;5081912;27;19930;-55
2024/02/27 06:53:34;;;;;;;;;;;11.20;52.30;;;;;;5081392;28;19935;-52
2024/02/27 06:56:03;;;;;;;;;;;11.30;52.40;;;;;;5079787;28;19928;-52
2024/02/27 06:58:33;;;;;;;;;;;11.30;52.40;;;;;;5077200;28;19953;-56
2024/02/27 07:01:02;;;;;;;;;;;11.40;52.40;;;;;;5084753;28;19928;-57
2024/02/27 07:03:31;;;;;;;;;;;11.50;52.40;;;;;;5082214;28;20469;-54
2024/02/27 07:06:00;;;;;;;;;;;11.50;52.40;;;;;;5085821;28;19928;-57
2024/02/27 07:08:29;;;;;;;;;;;11.60;52.40;;;;;;5079406;28;19928;-56
2024/02/27 07:10:57;;;;;;;;;;;11.70;52.40;;;;;;5071623;28;19981;-57
2024/02/27 07:13:25;;;;;;;;;;;11.70;52.30;;;;;;5070827;28;19928;-54
2024/02/27 07:15:56;;;;;;;;;;;11.60;52.30;;;;;;5082711;28;20012;-55
2024/02/27 07:18:24;;;;;;;;;;;11.80;52.30;;;;;;5084201;28;19928;-55
2024/02/27 07:20:54;;;;;;;;;;;11.80;52.20;;;;;;5074402;28;19932;-56
2024/02/27 07:23:22;;;;;;;;;;;11.90;52.10;;;;;;5083874;28;19932;-54
2024/02/27 07:25:50;;;;;;;;;;;11.80;52.10;;;;;;5084718;28;19928;-54
2024/02/27 07:28:19;;;;;;;;;;;11.90;52.20;;;;;;5082885;28;19928;-56
2024/02/27 07:30:57;;;;;;;;;;;11.90;52.60;;;;;;5084107;28;19967;-55
2024/02/27 07:33:25;;;;;;;;;;;11.90;52.30;;;;;;5080903;28;20030;-54
2024/02/27 07:35:54;;;;;;;;;;;12.00;52.30;;;;;;5080860;28;19927;-55
2024/02/27 07:38:22;;;;;;;;;;;12.10;52.30;;;;;;5081846;28;20358;-56
2024/02/27 07:40:51;;;;;;;;;;;12.10;52.30;;;;;;5081927;28;19927;-55
2024/02/27 07:43:20;;;;;;;;;;;12.20;52.30;;;;;;5078316;28;19932;-53
2024/02/27 07:45:51;;;;;;;;;;;12.20;52.20;;;;;;5083597;28;20014;-56
2024/02/27 07:48:22;;;;;;;;;;;12.20;52.20;;;;;;5085252;28;19927;-55
2024/02/27 07:50:53;;;;;;;;;;;12.20;52.20;;;;;;5080120;28;20341;-56
2024/02/27 07:53:21;;;;;;;;;;;12.30;52.30;;;;;;5081548;28;20543;-57
2024/02/27 07:55:50;;;;;;;;;;;12.30;52.10;;;;;;5070242;28;19942;-54
2024/02/27 07:58:19;;;;;;;;;;;12.40;52.20;;;;;;5087626;28;19928;-56
2024/02/27 08:00:47;;;;;;;;;;;12.40;52.10;;;;;;5080147;28;19935;-58
2024/02/27 08:03:18;;;;;;;;;;;12.50;52.20;;;;;;5074482;28;20014;-57
2024/02/27 08:05:48;;;;;;;;;;;12.50;52.20;;;;;;5076086;28;20017;-55
2024/02/27 08:08:16;;;;;;;;;;;12.50;52.10;;;;;;5082907;28;20299;-54
2024/02/27 08:10:44;;;;;;;;;;;12.60;52.20;;;;;;5082085;28;20022;-59
2024/02/27 08:13:12;;;;;;;;;;;12.60;52.10;;;;;;5086091;28;19928;-55
2024/02/27 08:15:41;;;;;;;;;;;12.70;52.10;;;;;;5075578;28;19928;-56
2024/02/27 08:18:09;;;;;;;;;;;12.70;52.10;;;;;;5089016;28;20530;-54
2024/02/27 08:20:37;;;;;;;;;;;12.90;52.60;;;;;;5087880;28;20229;-58
2024/02/27 08:23:08;;;;;;;;;;;13.00;52.20;;;;;;5087209;28;20379;-55
2024/02/27 08:25:37;;;;;;;;;;;13.20;52.20;;;;;;5078756;28;19928;-58
2024/02/27 08:28:06;;;;;;;;;;;13.30;52.10;;;;;;5076552;28;19936;-55
2024/02/27 08:30:34;;;;;;;;;;;13.50;52.10;;;;;;5081826;28;20704;-53
2024/02/27 08:33:03;;;;;;;;;;;13.60;52.60;;;;;;5081703;28;19967;-54
2024/02/27 08:35:31;;;;;;;;;;;13.80;52.00;;;;;;5082565;28;19953;-58
2024/02/27 08:37:59;;;;;;;;;;;13.90;51.90;;;;;;5079194;28;19928;-56
2024/02/27 08:40:31;;;;;;;;;;;14.00;51.70;;;;;;5077042;28;19959;-55
2024/02/27 08:42:59;;;;;;;;;;;14.10;51.70;;;;;;5080189;28;20321;-55
2024/02/27 08:45:27;;;;;;;;;;;14.10;51.60;;;;;;5084290;28;20365;-55
2024/02/27 08:47:55;;;;;;;;;;;14.10;51.60;;;;;;5080548;28;19928;-56
2024/02/27 08:50:24;;;;;;;;;;;14.20;51.60;;;;;;5077512;28;19977;-51
2024/02/27 08:52:53;;;;;;;;;;;14.20;51.70;;;;;;5079162;28;20963;-53
2024/02/27 08:55:24;;;;;;;;;;;14.20;51.70;;;;;;5079363;28;19928;-54
2024/02/27 08:57:54;;;;;;;;;;;14.20;52.00;;;;;;5080731;28;19934;-51
2024/02/27 09:00:23;;;;;;;;;;;14.30;51.80;;;;;;5077921;28;19928;-56
2024/02/27 09:02:51;;;;;;;;;;;14.40;51.80;;;;;;5071383;28;20015;-51
2024/02/27 09:05:19;;;;;;;;;;;14.50;51.80;;;;;;5074172;28;19928;-57
2024/02/27 09:07:47;;;;;;;;;;;14.60;51.80;;;;;;5084920;28;19928;-53
2024/02/27 09:10:16;;;;;;;;;;;14.70;51.50;;;;;;5078801;28;19935;-57
2024/02/27 09:12:44;;;;;;;;;;;14.70;51.50;;;;;;5076948;28;19967;-55
2024/02/27 09:15:13;;;;;;;;;;;14.70;51.50;;;;;;5084720;28;20304;-55
2024/02/27 09:17:41;;;;;;;;;;;14.70;51.40;;;;;;5076551;28;19928;-54
2024/02/27 09:20:10;;;;;;;;;;;14.60;51.40;;;;;;5084504;28;19977;-58
2024/02/27 09:22:39;;;;;;;;;;;14.50;51.30;;;;;;5079147;28;20018;-55
2024/02/27 09:25:07;;;;;;;;;;;14.50;51.50;;;;;;5081330;28;19936;-55
2024/02/27 09:27:35;;;;;;;;;;;14.40;51.90;;;;;;5078653;28;19928;-59
2024/02/27 09:30:04;;;;;;;;;;;14.40;51.50;;;;;;5077815;28;19927;-58
2024/02/27 09:32:34;;;;;;;;;;;14.30;51.50;;;;;;5077552;28;19927;-58
2024/02/27 09:35:02;;;;;;;;;;;14.20;51.60;;;;;;5080740;28;19965;-56
2024/02/27 09:37:31;;;;;;;;;;;14.20;51.60;;;;;;5078361;28;19928;-56
2024/02/27 09:39:59;;;;;;;;;;;14.20;51.70;;;;;;5091893;28;21181;-55
2024/02/27 09:42:29;;;;;;;;;;;14.20;51.70;;;;;;5082232;28;19924;-56
2024/02/27 09:45:05;;;;;;;;;;;14.20;51.70;;;;;;5077139;28;19923;-56
2024/02/27 09:47:38;;;;;;;;;;;14.10;51.60;;;;;;5083837;28;19935;-55
2024/02/27 09:50:07;;;;;;;;;;;14.10;51.80;;;;;;5075175;28;20694;-53
2024/02/27 09:52:36;;;;;;;;;;;14.10;51.70;;;;;;5083486;28;19928;-59
2024/02/27 09:55:07;;;;;;;;;;;14.10;51.80;;;;;;5088099;28;19924;-56
2024/02/27 09:57:37;;;;;;;;;;;14.10;51.70;;;;;;5081632;28;20323;-54
2024/02/27 10:00:06;;;;;;;;;;;14.10;51.80;;;;;;5077730;28;19931;-56
2024/02/27 10:02:40;;;;;;;;;;;14.10;51.80;;;;;;5086562;28;20013;-55
2024/02/27 10:05:08;;;;;;;;;;;14.10;51.80;;;;;;5088499;28;19928;-51
2024/02/27 10:07:38;;;;;;;;;;;14.10;51.70;;;;;;5084574;28;20394;-56
2024/02/27 10:10:09;;;;;;;;;;;14.00;51.70;;;;;;5079792;28;19935;-55
2024/02/27 10:12:37;;;;;;;;;;;14.10;51.80;;;;;;5066471;28;19989;-57
2024/02/27 10:15:06;;;;;;;;;;;14.10;51.80;;;;;;5088328;28;19932;-54
2024/02/27 10:17:35;;;;;;;;;;;14.10;51.80;;;;;;5087481;28;20401;-54
2024/02/27 10:20:06;;;;;;;;;;;14.10;51.80;;;;;;5081290;28;20001;-56
2024/02/27 10:22:35;;;;;;;;;;;14.10;51.80;;;;;;5084193;28;19931;-55
2024/02/27 10:25:05;;;;;;;;;;;14.10;51.90;;;;;;5075652;28;20012;-57
2024/02/27 10:27:35;;;;;;;;;;;14.10;51.80;;;;;;5079886;28;20407;-55
2024/02/27 10:30:04;;;;;;;;;;;14.10;51.90;;;;;;5086607;28;19930;-54
2024/02/27 10:32:33;;;;;;;;;;;14.20;51.90;;;;;;5077813;28;19936;-55
2024/02/27 10:35:02;;;;;;;;;;;14.20;51.80;;;;;;5088441;27;19928;-54
2024/02/27 10:37:33;;;;;;;;;;;14.20;51.80;;;;;;5080561;28;19932;-54
2024/02/27 10:40:01;;;;;;;;;;;14.20;51.90;;;;;;5077449;28;20107;-58
2024/02/27 10:42:30;;;;;;;;;;;14.20;52.00;;;;;;5079790;28;20394;-55
2024/02/27 10:44:58;;;;;;;;;;;14.20;51.80;;;;;;5070097;28;19924;-54
2024/02/27 10:47:26;;;;;;;;;;;14.20;51.80;;;;;;5085740;28;20014;-56
2024/02/27 10:49:55;;;;;;;;;;;14.30;52.00;;;;;;5082996;28;19947;-55
2024/02/27 10:52:26;;;;;;;;;;;14.30;51.80;;;;;;5079770;28;19936;-55
2024/02/27 10:54:56;;;;;;;;;;;14.40;52.30;;;;;;5080589;28;20306;-55
2024/02/27 10:57:25;;;;;;;;;;;14.40;51.80;;;;;;5082516;28;19932;-54
2024/02/27 10:59:55;;;;;;;;;;;14.40;51.80;;;;;;5087758;28;19924;-58
2024/02/27 11:02:25;;;;;;;;;;;14.40;51.80;;;;;;5066569;28;21064;-55
2024/02/27 11:04:54;;;;;;;;;;;14.40;51.80;;;;;;5068186;28;19932;-55
2024/02/27 11:07:23;;;;;;;;;;;14.40;51.80;;;;;;5061352;28;19950;-56
2024/02/27 11:09:52;;;;;;;;;;;14.50;51.90;;;;;;5082970;28;20275;-56
2024/02/27 11:12:21;;;;;;;;;;;14.50;51.70;;;;;;5075896;28;20031;-56
2024/02/27 11:14:51;;;;;;;;;;;14.40;51.70;;;;;;5079888;28;19924;-59
2024/02/27 11:17:20;;;;;;;;;;;14.50;51.80;;;;;;5069518;28;20013;-55
2024/02/27 11:19:50;;;;;;;;;;;14.40;52.10;;;;;;5083432;28;19946;-52
2024/02/27 11:22:19;;;;;;;;;;;14.40;51.80;;;;;;5086488;28;19959;-56
2024/02/27 11:24:47;;;;;;;;;;;14.40;51.80;;;;;;5078883;28;19930;-55
2024/02/27 11:27:17;;;;;;;;;;;14.40;51.80;;;;;;5079751;28;19962;-52
2024/02/27 11:29:49;;;;;;;;;;;14.50;51.80;;;;;;5079163;28;19930;-57
2024/02/27 11:32:17;;;;;;;;;;;14.50;51.80;;;;;;5080493;28;19986;-57
2024/02/27 11:34:47;;;;;;;;;;;14.50;51.80;;;;;;5082386;28;19931;-54
2024/02/27 11:37:18;;;;;;;;;;;14.50;51.80;;;;;;5081130;28;19936;-56
2024/02/27 11:39:46;;;;;;;;;;;14.50;51.80;;;;;;5081458;28;19928;-55
2024/02/27 11:42:28;;;;;;;;;;;14.50;51.70;;;;;;5083805;28;19927;-55
2024/02/27 11:45:05;;;;;;;;;;;14.50;51.80;;;;;;5081360;28;20641;-56
2024/02/27 11:47:34;;;;;;;;;;;14.50;51.80;;;;;;5081866;28;20274;-57
2024/02/27 11:50:02;;;;;;;;;;;14.40;51.80;;;;;;5069842;28;20018;-53
2024/02/27 11:52:33;;;;;;;;;;;14.50;51.80;;;;;;5080721;27;19928;-55
2024/02/27 11:55:05;;;;;;;;;;;14.40;51.80;;;;;;5080109;28;19927;-57
2024/02/27 11:57:34;;;;;;;;;;;14.50;51.80;;;;;;5080268;28;19938;-54
2024/02/27 12:00:09;;;;;;;;;;;14.50;51.80;;;;;;5077909;28;19935;-55
2024/02/27 12:02:37;;;;;;;;;;;14.60;51.80;;;;;;5080819;28;19928;-53
2024/02/27 12:05:06;;;;;;;;;;;14.50;51.60;;;;;;5085101;28;19927;-55
2024/02/27 12:07:34;;;;;;;;;;;14.50;51.70;;;;;;5083008;28;19998;-53
2024/02/27 12:10:08;;;;;;;;;;;14.40;51.80;;;;;;5088066;28;19943;-55
2024/02/27 12:12:37;;;;;;;;;;;14.40;51.80;;;;;;5058444;28;20690;-58
2024/02/27 12:15:06;;;;;;;;;;;14.40;51.80;;;;;;5073920;28;20254;-55
2024/02/27 12:17:37;;;;;;;;;;;14.50;51.90;;;;;;5082686;28;19928;-57
2024/02/27 12:20:06;;;;;;;;;;;14.50;51.80;;;;;;5082558;28;19970;-54
2024/02/27 12:22:37;;;;;;;;;;;14.40;51.80;;;;;;5082371;28;21553;-57
2024/02/27 12:25:05;;;;;;;;;;;14.40;51.80;;;;;;5073267;28;19924;-56
2024/02/27 12:27:35;;;;;;;;;;;14.40;51.80;;;;;;5086482;28;20037;-56
2024/02/27 12:30:08;;;;;;;;;;;14.40;51.80;;;;;;5089231;28;20032;-53
2024/02/27 12:32:39;;;;;;;;;;;14.40;51.80;;;;;;5082200;28;20552;-56
2024/02/27 12:35:09;;;;;;;;;;;14.40;51.80;;;;;;5080364;28;19928;-53
2024/02/27 12:37:40;;;;;;;;;;;14.40;51.90;;;;;;5081219;28;20354;-58
2024/02/27 12:40:12;;;;;;;;;;;14.50;51.90;;;;;;5079360;28;19938;-54
2024/02/27 12:42:41;;;;;;;;;;;14.50;51.80;;;;;;5077852;28;19942;-54
2024/02/27 12:45:10;;;;;;;;;;;14.50;51.80;;;;;;5079526;28;19935;-56
2024/02/27 12:47:40;;;;;;;;;;;14.60;51.90;;;;;;5058105;28;19932;-55
2024/02/27 12:50:09;;;;;;;;;;;14.60;51.90;;;;;;5071802;28;19928;-56
2024/02/27 12:52:38;;;;;;;;;;;14.60;51.90;;;;;;5081870;28;20027;-57
2024/02/27 12:55:08;;;;;;;;;;;14.70;51.90;;;;;;5075421;28;20462;-54
2024/02/27 12:57:36;;;;;;;;;;;14.70;51.90;;;;;;5076075;28;19939;-56
2024/02/27 13:00:07;;;;;;;;;;;14.70;51.80;;;;;;5072612;28;20017;-58
2024/02/27 13:02:36;;;;;;;;;;;14.80;51.80;;;;;;5076961;28;19936;-58
2024/02/27 13:05:07;;;;;;;;;;;14.70;51.70;;;;;;5080995;28;19938;-56
2024/02/27 13:07:38;;;;;;;;;;;14.70;51.70;;;;;;5072482;28;19928;-57
2024/02/27 13:10:07;;;;;;;;;;;14.80;51.80;;;;;;5078348;28;20369;-55
2024/02/27 13:12:35;;;;;;;;;;;14.70;51.70;;;;;;5080598;28;20390;-56
2024/02/27 13:15:04;;;;;;;;;;;14.70;51.70;;;;;;5085969;28;19931;-58
2024/02/27 13:17:32;;;;;;;;;;;14.70;51.70;;;;;;5067738;28;19940;-55
2024/02/27 13:20:03;;;;;;;;;;;14.70;51.80;;;;;;5057994;28;19947;-57
2024/02/27 13:22:33;;;;;;;;;;;14.70;51.80;;;;;;5061924;28;20035;-55
2024/02/27 13:25:01;;;;;;;;;;;14.70;51.70;;;;;;5067574;28;20021;-58
2024/02/27 13:27:29;;;;;;;;;;;14.70;51.70;;;;;;5062509;28;20056;-60
2024/02/27 13:29:58;;;;;;;;;;;14.70;51.80;;;;;;5058059;28;20056;-52
2024/02/27 13:32:26;;;;;;;;;;;14.70;51.70;;;;;;5059648;28;19928;-56
2024/02/27 13:34:55;;;;;;;;;;;14.70;51.80;;;;;;5064609;28;20049;-59
2024/02/27 13:37:23;;;;;;;;;;;14.60;51.80;;;;;;5058104;28;19936;-55
2024/02/27 13:39:52;;;;;;;;;;;14.70;51.80;;;;;;5056776;28;20308;-57
2024/02/27 13:42:22;;;;;;;;;;;14.60;51.80;;;;;;5065933;28;19928;-57
2024/02/27 13:44:50;;;;;;;;;;;14.70;51.80;;;;;;5062032;28;19924;-55
2024/02/27 13:47:19;;;;;;;;;;;14.60;51.90;;;;;;5059642;28;19928;-57
2024/02/27 13:49:49;;;;;;;;;;;14.60;51.80;;;;;;5054510;28;19932;-61
2024/02/27 13:52:17;;;;;;;;;;;14.70;51.90;;;;;;5056909;28;20017;-56
2024/02/27 13:54:46;;;;;;;;;;;14.70;51.90;;;;;;5061595;28;19929;-58
2024/02/27 13:57:15;;;;;;;;;;;14.70;51.90;;;;;;5058622;28;19940;-54
2024/02/27 13:59:43;;;;;;;;;;;14.70;51.90;;;;;;5053558;28;20130;-57
2024/02/27 14:02:12;;;;;;;;;;;14.80;51.90;;;;;;5072183;28;19936;-57
2024/02/27 14:04:40;;;;;;;;;;;14.80;51.80;;;;;;5064922;28;19976;-53
2024/02/27 14:07:09;;;;;;;;;;;14.80;51.70;;;;;;5062022;28;19932;-55
2024/02/27 14:09:37;;;;;;;;;;;14.80;51.80;;;;;;5055167;28;19932;-56
2024/02/27 14:12:09;;;;;;;;;;;14.80;51.80;;;;;;5057275;28;20351;-53
2024/02/27 14:14:39;;;;;;;;;;;14.90;51.80;;;;;;5056760;28;19981;-55
2024/02/27 14:17:07;;;;;;;;;;;14.80;51.80;;;;;;5061821;28;19928;-54
2024/02/27 14:19:36;;;;;;;;;;;14.80;52.20;;;;;;5077213;28;19927;-57
2024/02/27 14:22:04;;;;;;;;;;;14.80;51.80;;;;;;5081979;28;19928;-52
2024/02/27 14:24:32;;;;;;;;;;;14.80;51.70;;;;;;5077829;28;19924;-54
2024/02/27 14:27:01;;;;;;;;;;;14.70;51.70;;;;;;5081872;28;19968;-55
2024/02/27 14:29:29;;;;;;;;;;;14.70;52.30;;;;;;5079291;28;20323;-54